Latest Weather Observations for Bombala AWS

IDN60801

Issued at 10:05 pm EST Monday 28 July 2014 (issued every 30 minutes, with the page automatically refreshed every 10 minutes)

About weather observations | Map of weather stations | Latest weather observations for NSW | Other Formats
Station Details ID: 070328 Name: BOMBALA AWS Lat: -37.00 Lon: 149.23 Height: 760.5 m
Data from the previous 72 hours. | See also: Recent months at Bombala AWS
Date/Time
EST
Temp
°C
App
Temp
°C
Dew
Point
Rel
Hum
%
Delta-T
°C
Wind Press
QNH
hPa
Press
MSL
hPa
Rain
since 9 am
mm
Dir
 
Spd
km/h
Gust
km/h
Spd
kts
Gust
kts
28/10:00pm 3.5 -2.0 0.4 80 1.2 NNW 19 22 10 12 1014.5 1015.7 0.0
28/09:30pm 3.7 -2.0 0.6 80 1.2 NNW 20 24 11 13 1014.8 - 0.0
28/09:00pm 4.9 2.0 1.4 78 1.4 W 6 9 3 5 1015.7 1016.9 0.0
28/08:30pm 4.6 1.1 1.1 78 1.4 WNW 9 15 5 8 1015.6 - 0.0
28/08:00pm 6.6 1.6 1.5 70 2.2 NW 17 20 9 11 1015.4 1016.6 0.0
28/07:30pm 4.9 0.6 0.9 75 1.6 WNW 13 17 7 9 1015.6 - 0.0
28/07:00pm 5.6 1.0 1.3 74 1.8 NNW 15 17 8 9 1015.5 1016.7 0.0
28/06:30pm 7.4 2.1 1.7 67 2.4 WNW 19 22 10 12 1015.7 - 0.0
28/06:00pm 8.8 3.3 1.7 61 3.1 WNW 20 30 11 16 1015.4 1016.6 0.0
28/05:30pm 8.3 3.4 1.9 64 2.8 WNW 17 26 9 14 1015.2 - 0.0
28/05:00pm 9.8 3.5 1.7 57 3.5 WNW 24 33 13 18 1015.1 1016.4 0.0
28/04:30pm 11.1 5.9 2.2 54 4.0 W 19 24 10 13 1015.2 - 0.0
28/04:00pm 12.0 5.4 2.2 51 4.4 WNW 26 33 14 18 1015.1 1016.4 0.0
28/03:30pm 12.8 7.3 1.8 47 5.0 WNW 20 32 11 17 1015.4 - 0.0
28/03:00pm 13.1 7.8 2.1 47 5.0 WNW 19 24 10 13 1015.5 1016.7 0.0
28/02:30pm 12.9 5.6 2.2 48 4.9 WNW 30 37 16 20 1015.4 - 0.0
28/02:00pm 13.4 7.7 2.9 49 4.9 WNW 22 33 12 18 1015.9 1017.1 0.0
28/01:36pm 12.8 4.1 1.8 47 5.0 W 37 44 20 24 1015.8 - 0.0
28/01:30pm 12.7 4.9 1.7 47 4.9 NW 32 39 17 21 1015.8 - 0.0
28/01:00pm 12.3 5.7 2.2 50 4.6 NW 26 35 14 19 1016.1 1017.3 0.0
28/12:30pm 12.2 4.6 2.6 52 4.4 WNW 32 41 17 22 1016.9 - 0.0
28/12:00pm 11.6 5.6 3.6 58 3.7 NNW 24 32 13 17 1017.4 1018.7 0.0
28/11:30am 10.5 4.1 3.1 60 3.4 NW 26 32 14 17 1017.7 - 0.0
28/11:00am 9.8 3.8 3.3 64 2.9 NW 24 30 13 16 1018.2 1019.4 0.0
28/10:30am 8.4 3.8 3.7 72 2.1 N 17 22 9 12 1018.6 - 0.0
28/10:00am 6.2 2.9 2.3 76 1.7 N 9 13 5 7 1019.0 1020.3 0.0
28/09:30am 4.6 0.8 1.5 80 1.3 NNW 11 15 6 8 1019.1 - 0.0
28/09:00am 3.4 -0.5 1.0 84 1.0 NNW 11 15 6 8 1019.2 1020.5 0.0
28/08:30am 1.7 -2.0 0.2 90 0.6 N 9 11 5 6 1019.2 - 0.0
28/08:00am 0.8 -2.6 -0.8 89 0.6 N 7 11 4 6 1019.3 1020.6 0.0
28/07:30am 0.8 -2.4 -0.8 89 0.6 NNW 6 7 3 4 1019.3 - 0.0
28/07:00am 0.4 -3.7 -0.5 94 0.3 NNW 11 13 6 7 1019.3 1020.6 0.0
28/06:30am 0.0 -3.8 -1.0 93 0.4 NNW 9 9 5 5 1019.4 - 0.0
28/06:00am 0.9 -2.5 -0.4 91 0.5 NW 7 9 4 5 1019.1 1020.4 0.0
28/05:30am 1.4 -2.7 -0.5 87 0.7 NW 11 11 6 6 1018.9 - 0.0
28/05:00am 2.5 -0.8 0.4 86 0.8 N 7 11 4 6 1018.8 1020.1 0.0
28/04:30am 2.0 -2.8 0.1 87 0.7 NNW 15 17 8 9 1018.9 - 0.0
28/04:00am 4.0 -0.3 0.9 80 1.3 NW 13 17 7 9 1019.0 1020.3 0.0
28/03:30am 1.8 -1.8 0.3 90 0.6 NW 9 13 5 7 1019.0 - 0.0
28/03:00am 1.3 -4.4 0.6 95 0.3 NW 20 22 11 12 1019.0 1020.3 0.0
28/02:30am 1.0 -2.6 0.4 96 0.2 NW 9 11 5 6 1019.6 - 0.0
28/02:00am 0.9 -2.7 0.3 96 0.2 NW 9 13 5 7 1019.9 1021.2 0.0
28/01:30am 1.5 -2.1 0.5 93 0.4 NW 9 13 5 7 1019.7 - 0.0
28/01:00am 3.0 -0.5 1.4 89 0.6 WNW 9 11 5 6 1019.9 1021.2 0.0
28/12:30am 2.9 0.1 2.0 94 0.4 W 6 7 3 4 1020.0 - 0.0
28/12:00am 2.4 -1.7 2.3 99 0.0 NNW 13 17 7 9 1019.7 1021.0 0.0
 
Date/Time
EST
Temp
°C
App
Temp
°C
Dew
Point
Rel
Hum
%
Delta-T
°C
Wind Press
QNH
hPa
Press
MSL
hPa
Rain
since 9 am
mm
Dir
 
Spd
km/h
Gust
km/h
Spd
kts
Gust
kts
27/11:30pm 3.3 -0.4 2.6 95 0.3 NNW 11 13 6 7 1020.2 - 0.0
27/11:00pm 3.6 0.7 2.7 94 0.4 NW 7 9 4 5 1020.5 1021.8 0.0
27/10:30pm 3.2 0.2 2.3 94 0.4 NNW 7 9 4 5 1021.0 - 0.0
27/10:00pm 4.5 1.8 2.8 89 0.7 WNW 6 7 3 4 1021.3 1022.6 0.0
27/09:30pm 5.1 2.6 3.6 90 0.7 W 6 7 3 4 1021.5 - 0.0
27/09:00pm 5.0 2.3 2.7 85 1.0 NNE 6 7 3 4 1021.6 1022.9 0.0
27/08:30pm 3.6 0.4 2.9 95 0.3 ENE 9 11 5 6 1021.3 - 0.0
27/08:00pm 5.9 4.6 3.9 87 0.9 CALM 0 0 0 0 1021.3 1022.6 0.0
27/07:30pm 4.9 3.4 2.9 87 0.9 CALM 0 6 0 3 1020.6 - 0.0
27/07:00pm 7.9 5.7 3.4 73 2.0 NW 4 7 2 4 1020.7 1022.1 0.0
27/06:30pm 7.7 5.0 3.7 76 1.8 N 7 11 4 6 1020.6 - 0.0
27/06:00pm 7.8 5.3 4.6 80 1.5 NW 7 11 4 6 1020.3 1021.6 0.0
27/05:30pm 8.1 5.7 4.3 77 1.7 W 6 7 3 4 1020.4 - 0.0
27/05:00pm 9.6 7.7 4.8 72 2.2 W 4 7 2 4 1020.1 1021.4 0.0
27/04:30pm 10.5 8.0 4.9 68 2.6 W 7 9 4 5 1020.1 - 0.0
27/04:00pm 11.0 8.4 4.0 62 3.2 W 7 11 4 6 1020.4 1021.7 0.0
27/03:30pm 12.0 9.0 4.0 58 3.8 W 9 15 5 8 1020.5 - 0.0
27/03:00pm 12.5 8.4 4.5 58 3.8 W 15 22 8 12 1020.5 1021.8 0.0
27/02:30pm 12.4 9.2 5.3 62 3.4 W 11 17 6 9 1020.7 - 0.0
27/02:00pm 11.4 8.0 4.2 61 3.4 SW 11 17 6 9 1020.8 1022.2 0.0
27/01:30pm 11.3 7.7 5.2 66 2.9 SW 13 19 7 10 1021.1 - 0.0
27/01:00pm 10.5 6.6 5.3 70 2.5 WSW 15 19 8 10 1021.8 1023.2 0.0
27/12:30pm 10.3 6.6 4.2 66 2.8 WSW 13 19 7 10 1022.2 - 0.0
27/12:00pm 10.1 5.3 4.9 70 2.4 W 19 22 10 12 1022.6 1023.9 0.0
27/11:30am 9.7 4.8 4.3 69 2.5 SW 19 28 10 15 1023.0 - 0.0
27/11:00am 9.4 4.4 4.4 71 2.3 SW 20 26 11 14 1023.4 1024.8 0.0
27/10:30am 9.5 4.1 4.7 72 2.2 WSW 22 32 12 17 1023.6 - 0.0
27/10:00am 9.1 4.3 5.8 80 1.6 WSW 20 28 11 15 1023.9 1025.2 0.0
27/09:30am 8.9 4.2 6.0 82 1.4 WSW 20 26 11 14 1024.0 - 0.0
27/09:00am 8.1 4.4 6.4 89 0.8 W 15 22 8 12 1023.9 1025.2 0.2
27/08:30am 7.4 4.2 6.7 95 0.3 W 13 17 7 9 1023.7 - 0.2
27/08:00am 7.0 3.3 6.3 95 0.3 WNW 15 19 8 10 1023.5 1024.9 0.2
27/07:30am 6.9 3.6 6.2 95 0.3 WNW 13 15 7 8 1023.4 - 0.2
27/07:00am 6.8 3.5 6.5 98 0.1 NW 13 15 7 8 1023.3 1024.7 0.2
27/06:30am 6.5 3.6 6.4 99 0.0 NW 11 17 6 9 1023.0 - 0.2
27/06:00am 6.9 4.0 6.5 97 0.2 W 11 17 6 9 1022.6 1023.9 0.2
27/05:30am 6.3 3.7 6.2 99 0.0 NNW 9 13 5 7 1022.6 - 0.2
27/05:00am 6.6 4.1 6.5 99 0.0 WNW 9 13 5 7 1022.3 1023.7 0.2
27/04:30am 6.0 3.0 5.9 99 0.0 WNW 11 19 6 10 1022.5 - 0.2
27/04:00am 6.6 2.6 6.5 99 0.0 W 17 22 9 12 1022.2 1023.6 0.2
27/03:30am 6.6 3.3 6.3 98 0.1 W 13 17 7 9 1022.3 - 0.2
27/03:00am 6.7 2.6 6.3 97 0.2 WNW 17 20 9 11 1022.2 1023.6 0.2
27/02:30am 6.6 2.1 5.9 95 0.3 W 19 22 10 12 1022.3 - 0.2
27/02:00am 6.6 2.5 6.0 96 0.3 W 17 26 9 14 1022.5 1023.8 0.2
27/01:30am 6.4 2.3 6.0 97 0.2 W 17 22 9 12 1022.6 - 0.2
27/01:00am 6.6 2.4 5.7 94 0.4 WSW 17 20 9 11 1022.6 1023.9 0.2
27/12:30am 5.1 2.7 4.2 94 0.4 WNW 6 7 3 4 1022.6 - 0.2
27/12:00am 5.4 2.9 4.5 94 0.4 WNW 7 11 4 6 1022.7 1024.0 0.0
 
Date/Time
EST
Temp
°C
App
Temp
°C
Dew
Point
Rel
Hum
%
Delta-T
°C
Wind Press
QNH
hPa
Press
MSL
hPa
Rain
since 9 am
mm
Dir
 
Spd
km/h
Gust
km/h
Spd
kts
Gust
kts
26/11:30pm 4.8 1.4 4.1 95 0.3 WNW 11 13 6 7 1022.7 - 0.0
26/11:00pm 4.7 2.4 4.6 99 0.0 WNW 6 9 3 5 1022.9 1024.3 0.0
26/10:30pm 5.5 3.3 5.2 98 0.1 WNW 6 7 3 4 1023.0 - 0.0
26/10:00pm 4.7 2.2 4.6 99 0.0 WNW 7 11 4 6 1023.0 1024.4 0.0
26/09:30pm 5.1 3.5 4.7 97 0.2 NNW 2 4 1 2 1023.1 - 0.0
26/09:00pm 5.0 2.6 4.3 95 0.3 N 6 7 3 4 1022.9 1024.3 0.0
26/08:30pm 6.2 4.9 5.9 98 0.1 SSW 2 9 1 5 1022.8 - 0.0
26/08:00pm 5.8 4.3 5.1 95 0.3 NNW 2 6 1 3 1022.5 1023.8 0.0
26/07:30pm 6.0 4.3 5.7 98 0.1 WNW 4 6 2 3 1022.2 - 0.0
26/07:00pm 6.4 4.1 5.7 95 0.3 WNW 7 9 4 5 1022.2 1023.6 0.0
26/06:30pm 6.5 3.8 5.5 93 0.5 WSW 9 13 5 7 1022.3 - 0.0
26/06:00pm 7.1 4.9 5.1 87 0.9 WSW 6 9 3 5 1021.8 1023.2 0.0
26/05:30pm 8.1 6.4 5.9 86 1.0 SW 4 6 2 3 1021.5 - 0.0
26/05:00pm 8.6 6.3 5.9 83 1.3 SW 7 9 4 5 1021.4 1022.7 0.0
26/04:30pm 9.1 5.7 5.8 80 1.6 SW 13 19 7 10 1021.3 - 0.0
26/04:00pm 9.8 7.3 6.5 80 1.6 SW 9 13 5 7 1021.0 1022.3 0.0
26/03:30pm 9.2 2.0 5.0 75 2.0 SW 32 39 17 21 1020.8 - 0.0
26/03:26pm 10.2 2.5 3.5 63 3.1 SW 33 39 18 21 1020.7 - 0.0
26/03:00pm 10.3 6.5 3.8 64 3.0 SSW 13 19 7 10 1020.5 1021.8 0.0
26/02:30pm 11.1 8.7 4.3 63 3.2 NW 6 9 3 5 1020.4 - 0.0
26/02:00pm 11.0 7.9 3.8 61 3.3 W 9 13 5 7 1020.4 1021.7 0.0
26/01:30pm 11.1 7.6 3.6 60 3.5 NW 11 17 6 9 1020.5 - 0.0
26/01:00pm 11.9 8.2 4.2 59 3.6 NW 13 19 7 10 1020.7 1022.1 0.0
26/12:30pm 11.3 7.2 4.3 62 3.3 NNW 15 24 8 13 1021.4 - 0.0
26/12:00pm 9.6 7.2 5.2 74 2.1 N 7 11 4 6 1021.9 1023.3 0.0
26/11:30am 8.2 5.0 5.0 80 1.5 NNW 11 13 6 7 1022.3 - 0.0
26/11:00am 7.5 4.2 4.8 83 1.2 NNW 11 13 6 7 1022.8 1024.1 0.0
26/10:30am 5.7 2.3 3.9 88 0.8 NNW 11 13 6 7 1023.0 - 0.0
26/10:00am 5.8 1.9 3.5 85 1.0 NNW 13 15 7 8 1023.1 1024.5 0.0
26/09:30am 4.5 1.5 3.9 96 0.3 NNW 9 11 5 6 1023.2 - 0.0
26/09:00am 0.3 -3.7 0.2 99 0.0 NNW 11 13 6 7 1023.0 1024.4 0.0
26/08:30am -0.7 -4.1 -0.8 99 0.0 NNW 7 9 4 5 1022.9 - 0.0
26/08:00am -0.2 -3.4 -0.6 97 0.1 NW 6 7 3 4 1022.6 1023.9 0.0
26/07:30am -0.9 -4.4 -1.0 99 0.0 NNW 7 9 4 5 1022.5 - 0.0
26/07:00am -1.3 -4.6 -1.4 99 0.0 NNW 6 7 3 4 1022.1 1023.5 0.0
26/06:30am -1.3 -4.6 -1.6 98 0.0 NW 6 9 3 5 1021.8 - 0.0
26/06:00am -0.5 -3.3 -0.6 99 0.0 NW 4 4 2 2 1021.7 1023.0 0.0
26/05:30am -0.8 -3.7 -1.2 97 0.1 WNW 4 6 2 3 1021.4 - 0.0
26/05:00am -0.1 -2.9 -0.2 99 0.0 NW 4 6 2 3 1021.2 1022.5 0.0
26/04:30am -0.5 -4.0 -1.2 95 0.2 NNW 7 7 4 4 1021.2 - 0.0
26/04:00am 0.3 -3.0 -0.1 97 0.2 NNW 7 9 4 5 1021.3 1022.6 0.0
26/03:30am 0.4 -3.4 -0.5 94 0.3 NNW 9 11 5 6 1021.5 - 0.0
26/03:00am 0.5 -3.3 -0.4 94 0.3 NNW 9 11 5 6 1021.6 1022.9 0.0
26/02:30am 1.4 -1.7 0.2 92 0.5 NNW 6 6 3 3 1021.5 - 0.0
26/02:00am 0.7 -3.4 -0.2 94 0.3 NNW 11 13 6 7 1021.6 1022.9 0.0
26/01:30am 2.5 -1.1 0.4 86 0.8 NW 9 11 5 6 1021.6 - 0.0
26/01:00am 1.2 -2.8 0.2 93 0.4 NNW 11 13 6 7 1021.5 1022.8 0.0
26/12:30am 0.9 -2.4 0.2 95 0.3 NNW 7 9 4 5 1021.6 - 0.0
26/12:00am 1.5 -1.8 -0.1 89 0.6 NW 7 9 4 5 1021.7 1023.0 0.0
 
Date/Time
EST
Temp
°C
App
Temp
°C
Dew
Point
Rel
Hum
%
Delta-T
°C
Wind Press
QNH
hPa
Press
MSL
hPa
Rain
since 9 am
mm
Dir
 
Spd
km/h
Gust
km/h
Spd
kts
Gust
kts
25/11:30pm 1.8 -1.8 0.8 93 0.4 WNW 9 11 5 6 1021.8 - 0.0
25/11:00pm 1.3 -1.9 0.6 95 0.3 N 7 9 4 5 1021.7 1023.0 0.0
25/10:30pm 1.2 -2.0 -0.3 90 0.6 NW 6 7 3 4 1021.8 - 0.0

Other Formats:

Comma delimited format used in spreadsheet applications
http://www.bom.gov.au/fwo/IDN60801/IDN60801.94929.axf

JavaScript Object Notation format (JSON) in row-major order
http://www.bom.gov.au/fwo/IDN60801/IDN60801.94929.json